Hovedside
METAR-TAF:

METAR-TAF

Lufthavner :

Kuopio lufthavn

Kuopio, Finland

breddegrad: 63-01N, lengdegrad: 027-48E, høyde over havet: 98 m

Gjeldene værobservasjon

Denne rapporten ble laget for 29 minutter siden, klokken 16:50 UTC
Vind 8 kt fra Nord-nordvest
Temperatur 19°C
Luftfuktighet 52%
Trykk 1014 hPa
Sikt 10 km eller mer
ingen skyer under 1500 m og ingen bygeskyer

METAR: EFKU 241650Z AUTO 34008KT CAVOK 19/09 Q1014

Tid: 20:19 (17:19 UTC)

Varsel

Denne rapporten ble laget for 2 timer og 52 minutter siden, klokken 14:27 UTC
Varsel gyldig fra 24. klokken 15 UTC til 25. klokken 15 UTC
Vind 7 kt fra Nordvest
Sikt 10 km eller mer
ingen skyer under 1500 m og ingen bygeskyer
Sannsynlighet 30% :
Midlertidig
fra 24. klokken 15 UTC til 24. klokken 16 UTC
Få skyer i en høyde av 4000 ft, Bygeskyer.

TAF: EFKU 241427Z 2415/2515 31007KT CAVOK PROB30 TEMPO 2415/2416 FEW040CB

Værobservasjoner og værvarsel for over 4000 flyplasser (METAR- og TAF-rapporter).

Tilgjengelige stasjoner er representert av de røde og gule prikkene på kartet.

Hold musepekeren over prikken for å se navnet på stasjonen.

Klikk så for å se værobservasjoner og -varsler.

For å forandre kartet kan du klikke på den grønne knappen med svart kryss for å zoome inn, på den grønne knappen med strek for å zoome ut, eller på de grønne pilene for å se tilstøtende kart.


METAR-TAF: